createdAt,value
2023-04-07T00:18:15.171Z,101758.44
2023-04-07T00:24:43.942Z,101745.78
2023-04-07T00:30:50.882Z,101776.84
2023-04-07T00:42:55.260Z,101755.50
2023-04-07T00:59:57.761Z,101770.53
2023-04-07T01:06:05.321Z,101777.75
2023-04-07T01:24:02.204Z,101771.25
2023-04-07T01:29:16.828Z,101778.47
2023-04-07T01:34:14.219Z,101762.97
2023-04-07T01:39:11.509Z,101777.88
2023-04-07T01:44:08.757Z,101764.00
2023-04-07T01:49:05.515Z,101773.75
2023-04-07T01:54:02.114Z,101776.47
2023-04-07T01:59:01.038Z,101769.56
2023-04-07T02:04:14.159Z,101771.44
2023-04-07T02:09:11.800Z,101780.38
2023-04-07T02:14:09.103Z,101784.75
2023-04-07T02:19:08.332Z,101774.47
2023-04-07T02:24:08.241Z,101764.16
2023-04-07T02:29:04.919Z,101782.53
2023-04-07T02:34:01.433Z,101784.25
2023-04-07T02:46:33.876Z,101792.38
2023-04-07T03:03:45.163Z,101799.72
2023-04-07T03:08:42.178Z,101798.09
2023-04-07T03:13:38.671Z,101800.78
2023-04-07T03:18:36.098Z,101804.38
2023-04-07T03:23:32.559Z,101806.25
2023-04-07T04:40:53.171Z,101817.19
2023-04-07T05:11:11.700Z,101884.50
2023-04-07T05:36:48.104Z,101907.91
2023-04-07T05:47:53.514Z,101901.53
2023-04-07T05:59:57.968Z,101917.09
2023-04-07T06:17:27.856Z,101949.22
2023-04-07T06:29:10.323Z,101922.53
2023-04-07T07:10:28.015Z,101945.81
2023-04-07T07:16:25.208Z,101974.09
2023-04-07T07:22:00.248Z,101967.72
2023-04-07T07:40:43.216Z,101962.53
2023-04-07T07:46:01.336Z,101987.81
2023-04-07T07:58:35.138Z,101975.53
2023-04-07T08:10:37.156Z,101998.19
2023-04-07T09:00:15.921Z,102020.69
2023-04-07T09:05:14.579Z,102012.13
2023-04-07T09:10:11.157Z,102015.03
2023-04-07T09:15:08.271Z,102012.00
2023-04-07T09:33:49.954Z,102014.13
2023-04-07T10:14:46.777Z,102015.66
2023-04-07T10:19:43.250Z,102013.19
2023-04-07T10:24:57.464Z,102014.09
2023-04-07T10:29:54.252Z,102007.56
2023-04-07T10:34:53.327Z,102025.09
2023-04-07T10:40:11.273Z,102004.53
2023-04-07T10:45:09.704Z,102013.31
2023-04-07T10:50:26.504Z,102009.56
2023-04-07T10:55:34.154Z,101999.81
2023-04-07T11:00:30.637Z,102011.22
2023-04-07T11:05:27.075Z,102015.31
2023-04-07T11:10:23.687Z,102015.91
2023-04-07T11:15:22.069Z,102014.69
2023-04-07T11:20:18.527Z,102011.03
2023-04-07T11:25:21.894Z,102014.69
2023-04-07T11:30:18.370Z,102018.41
2023-04-07T11:35:16.170Z,102015.38
2023-04-07T11:40:14.544Z,102028.88
2023-04-07T11:45:18.371Z,102014.81
2023-04-07T11:50:14.838Z,102016.59
2023-04-07T11:55:26.874Z,102020.06
2023-04-07T12:00:23.592Z,102029.88
2023-04-07T12:05:20.370Z,102021.06
2023-04-07T12:10:20.412Z,102027.31
2023-04-07T12:15:16.989Z,102033.47
2023-04-07T12:20:14.359Z,102017.59
2023-04-07T12:25:10.848Z,102028.03
2023-04-07T12:30:08.011Z,102022.56
2023-04-07T12:35:05.284Z,102038.38
2023-04-07T12:40:01.754Z,102044.47
2023-04-07T12:44:58.236Z,102035.34
2023-04-07T12:49:54.665Z,102030.91
2023-04-07T12:54:51.146Z,102030.63
2023-04-07T12:59:48.125Z,102033.94
2023-04-07T13:04:46.559Z,102024.22
2023-04-07T13:09:46.225Z,102024.09
2023-04-07T13:14:52.909Z,102023.03
2023-04-07T13:19:56.215Z,102020.25
2023-04-07T13:24:52.714Z,102026.16
2023-04-07T13:29:49.253Z,102019.34
2023-04-07T13:34:46.506Z,102025.00
2023-04-07T13:39:42.945Z,102031.09
2023-04-07T13:44:40.067Z,102026.63
2023-04-07T13:49:36.806Z,102039.72
2023-04-07T13:54:33.699Z,102023.81
2023-04-07T13:59:30.595Z,102022.66
2023-04-07T14:04:27.353Z,102031.53
2023-04-07T14:09:23.700Z,102026.84
2023-04-07T14:14:20.141Z,102018.63
2023-04-07T14:19:16.596Z,102014.78
2023-04-07T14:24:13.075Z,102015.66
2023-04-07T14:29:11.037Z,102032.34
2023-04-07T15:24:07.079Z,102075.66
2023-04-07T15:29:03.543Z,102068.78
2023-04-07T15:34:00.439Z,102083.00
2023-04-07T15:45:38.053Z,102091.19
2023-04-07T16:03:51.783Z,102102.00
2023-04-07T16:32:57.512Z,102136.25
2023-04-07T16:57:40.964Z,102140.41
2023-04-07T17:09:08.151Z,102172.13
2023-04-07T17:45:10.836Z,102224.47
2023-04-07T17:51:10.709Z,102207.69
2023-04-07T20:13:49.432Z,102298.63
2023-04-07T20:24:16.248Z,102296.97
2023-04-07T20:43:00.445Z,102337.41
2023-04-07T20:59:29.043Z,102317.28
2023-04-07T21:29:09.094Z,102341.75
2023-04-07T21:34:05.524Z,102343.47
2023-04-07T22:04:22.743Z,102315.47
2023-04-07T22:10:34.306Z,102337.91
2023-04-07T22:33:30.422Z,102331.75
2023-04-07T22:43:52.385Z,102338.72
2023-04-07T22:48:49.318Z,102349.25
2023-04-07T22:53:48.475Z,102337.00
2023-04-07T22:58:44.905Z,102341.41
2023-04-07T23:03:41.462Z,102358.09
2023-04-07T23:19:22.438Z,102344.16
2023-04-07T23:24:19.204Z,102342.53
2023-04-07T23:48:52.655Z,102329.31
